createdAt,value
2023-05-02T00:00:24.942Z,12.75
2023-05-02T00:01:27.181Z,12.69
2023-05-02T00:02:29.598Z,12.73
2023-05-02T00:03:32.832Z,12.72
2023-05-02T00:04:35.208Z,12.71
2023-05-02T00:05:37.535Z,12.74
2023-05-02T00:06:39.879Z,12.70
2023-05-02T00:07:42.119Z,12.68
2023-05-02T00:08:44.253Z,12.66
2023-05-02T00:09:46.560Z,12.65
2023-05-02T00:10:48.909Z,12.67
2023-05-02T00:11:51.011Z,12.71
2023-05-02T00:12:53.107Z,12.68
2023-05-02T00:13:55.269Z,12.65
2023-05-02T00:14:57.297Z,12.63
2023-05-02T00:15:59.415Z,12.61
2023-05-02T00:17:01.656Z,12.65
2023-05-02T00:18:03.915Z,12.62
2023-05-02T00:19:06.159Z,12.60
2023-05-02T00:20:11.946Z,12.63
2023-05-02T00:21:14.187Z,12.60
2023-05-02T00:22:16.269Z,12.60
2023-05-02T00:23:18.436Z,12.63
2023-05-02T00:24:20.567Z,12.63
2023-05-02T00:25:23.642Z,12.66
2023-05-02T00:26:26.893Z,12.67
2023-05-02T00:27:30.050Z,12.68
2023-05-02T00:28:33.549Z,12.72
2023-05-02T00:29:35.757Z,12.73
2023-05-02T00:30:43.109Z,12.77
2023-05-02T00:31:45.205Z,12.76
2023-05-02T00:32:47.305Z,12.74
2023-05-02T00:33:49.434Z,12.77
2023-05-02T00:34:51.540Z,12.87
2023-05-02T00:35:53.653Z,12.90
2023-05-02T00:36:55.786Z,12.90
2023-05-02T00:37:59.682Z,12.85
2023-05-02T00:39:01.777Z,12.82
2023-05-02T00:40:05.182Z,12.79
2023-05-02T00:41:07.295Z,12.86
2023-05-02T00:42:09.497Z,12.90
2023-05-02T00:43:11.882Z,12.95
2023-05-02T00:44:13.982Z,12.94
2023-05-02T00:45:16.366Z,12.89
2023-05-02T00:46:18.573Z,12.86
2023-05-02T00:47:21.062Z,12.90
2023-05-02T00:48:23.400Z,12.95
2023-05-02T00:49:25.488Z,13.00
2023-05-02T00:50:29.200Z,12.98
2023-05-02T00:51:34.197Z,12.93
2023-05-02T00:52:37.496Z,12.88
2023-05-02T00:53:40.596Z,12.84
2023-05-02T00:54:43.846Z,12.84
2023-05-02T00:55:46.414Z,12.80
2023-05-02T00:56:48.551Z,12.82
2023-05-02T00:57:50.678Z,12.86
2023-05-02T00:58:52.984Z,12.89
2023-05-02T00:59:55.408Z,12.90
2023-05-02T01:01:16.190Z,12.90
2023-05-02T01:02:59.610Z,12.88
2023-05-02T01:04:15.794Z,12.87
2023-05-02T01:05:25.811Z,12.82
2023-05-02T01:06:43.335Z,12.85
2023-05-02T01:07:54.595Z,12.83
2023-05-02T01:09:06.879Z,12.86
2023-05-02T01:10:17.983Z,12.87
2023-05-02T01:11:29.197Z,12.92
2023-05-02T01:12:34.454Z,12.96
2023-05-02T01:13:37.936Z,12.96
2023-05-02T01:14:45.987Z,12.95
2023-05-02T01:15:49.230Z,12.92
2023-05-02T01:16:52.993Z,12.93
2023-05-02T01:17:56.596Z,13.00
2023-05-02T01:18:59.762Z,12.99
2023-05-02T01:20:14.618Z,12.99
2023-05-02T01:21:16.800Z,12.97
2023-05-02T01:22:20.160Z,12.95
2023-05-02T01:23:48.168Z,12.92
2023-05-02T01:25:02.145Z,12.91
2023-05-02T01:26:14.420Z,12.90
2023-05-02T01:27:36.854Z,12.85
2023-05-02T01:29:01.212Z,12.80
2023-05-02T01:30:04.701Z,12.79
2023-05-02T01:31:06.994Z,12.76
2023-05-02T01:32:09.481Z,12.76
2023-05-02T01:33:14.239Z,12.75
2023-05-02T01:34:18.461Z,12.80
2023-05-02T01:35:21.501Z,12.84
2023-05-02T01:36:27.030Z,12.80
2023-05-02T01:37:30.405Z,12.85
2023-05-02T01:38:34.021Z,12.86
2023-05-02T01:39:36.850Z,12.79
2023-05-02T01:40:39.326Z,12.73
2023-05-02T01:41:42.754Z,12.73
2023-05-02T01:42:46.706Z,12.70
2023-05-02T01:43:48.997Z,12.62
2023-05-02T01:44:51.974Z,12.56
2023-05-02T01:45:54.427Z,12.56
2023-05-02T01:46:56.989Z,12.56
2023-05-02T01:48:01.010Z,12.59
2023-05-02T01:49:04.233Z,12.59
2023-05-02T01:50:08.872Z,12.52
2023-05-02T01:51:10.880Z,12.55
2023-05-02T01:52:14.204Z,12.50
2023-05-02T01:53:17.400Z,12.46
2023-05-02T01:54:22.913Z,12.42
2023-05-02T01:55:26.026Z,12.42
2023-05-02T01:56:30.467Z,12.39
2023-05-02T01:57:32.818Z,12.41
2023-05-02T01:58:36.246Z,12.46
2023-05-02T01:59:40.391Z,12.51
2023-05-02T02:00:45.222Z,12.47
2023-05-02T02:01:48.516Z,12.49
2023-05-02T02:02:51.688Z,12.46
2023-05-02T02:03:55.959Z,12.42
2023-05-02T02:04:59.377Z,12.46
2023-05-02T02:06:03.457Z,12.42
2023-05-02T02:07:08.929Z,12.37
2023-05-02T02:08:11.046Z,12.35
2023-05-02T02:09:13.293Z,12.33
2023-05-02T02:10:15.483Z,12.39
2023-05-02T02:11:21.137Z,12.43
2023-05-02T02:12:41.183Z,12.40
2023-05-02T02:13:50.777Z,12.42
2023-05-02T02:15:16.207Z,12.37
2023-05-02T02:16:25.874Z,12.37
2023-05-02T02:17:32.588Z,12.26
2023-05-02T02:18:37.222Z,12.21
2023-05-02T02:19:41.127Z,12.16
2023-05-02T02:20:44.113Z,12.17
2023-05-02T02:21:47.295Z,12.18
2023-05-02T02:22:50.096Z,12.19
2023-05-02T02:23:54.196Z,12.23
2023-05-02T02:24:57.148Z,12.27
2023-05-02T02:26:00.249Z,12.27
2023-05-02T02:27:02.616Z,12.20
2023-05-02T02:28:04.957Z,12.11
2023-05-02T02:29:07.040Z,12.00
2023-05-02T02:30:10.161Z,11.96
2023-05-02T02:31:12.249Z,11.94
2023-05-02T02:32:14.336Z,11.94
2023-05-02T02:33:16.422Z,11.93
2023-05-02T02:34:36.902Z,11.94
2023-05-02T02:35:42.810Z,11.97
2023-05-02T02:36:48.256Z,12.01
2023-05-02T02:38:15.281Z,11.99
2023-05-02T02:39:54.494Z,11.97
2023-05-02T02:41:02.564Z,11.97
2023-05-02T02:42:25.002Z,11.99
2023-05-02T02:43:34.085Z,11.95
2023-05-02T02:44:50.977Z,11.87
2023-05-02T02:46:01.368Z,11.82
2023-05-02T02:47:06.200Z,11.78
2023-05-02T02:48:20.912Z,11.69
2023-05-02T02:49:33.181Z,11.64
2023-05-02T02:50:35.296Z,11.59
2023-05-02T02:51:46.881Z,11.52
2023-05-02T02:52:54.008Z,11.51
2023-05-02T02:54:23.042Z,11.48
2023-05-02T02:55:32.058Z,11.57
2023-05-02T02:56:40.479Z,11.56
2023-05-02T02:57:57.658Z,11.52
2023-05-02T02:59:06.748Z,11.50
2023-05-02T03:00:34.638Z,11.53
2023-05-02T03:01:58.633Z,11.51
2023-05-02T03:03:00.814Z,11.49
2023-05-02T03:04:05.080Z,11.50
2023-05-02T03:05:07.921Z,11.58
2023-05-02T03:06:10.110Z,11.55
2023-05-02T03:07:12.293Z,11.54
2023-05-02T03:08:14.369Z,11.48
2023-05-02T03:09:20.079Z,11.46
2023-05-02T03:10:22.701Z,11.47
2023-05-02T03:11:24.809Z,11.45
2023-05-02T03:12:26.971Z,11.52
2023-05-02T03:13:29.068Z,11.47
2023-05-02T03:14:31.198Z,11.44
2023-05-02T03:15:51.605Z,11.47
2023-05-02T03:16:53.798Z,11.43
2023-05-02T03:17:55.993Z,11.42
2023-05-02T03:18:58.468Z,11.42
2023-05-02T03:20:00.785Z,11.48
2023-05-02T03:21:03.185Z,11.51
2023-05-02T03:22:05.768Z,11.49
2023-05-02T03:23:07.955Z,11.43
2023-05-02T03:24:10.043Z,11.40
2023-05-02T03:25:12.574Z,11.38
2023-05-02T03:26:14.805Z,11.36
2023-05-02T03:27:17.125Z,11.35
2023-05-02T03:28:19.181Z,11.30
2023-05-02T03:29:21.265Z,11.23
2023-05-02T03:30:23.470Z,11.21
2023-05-02T03:31:26.585Z,11.17
2023-05-02T03:32:29.114Z,11.17
2023-05-02T03:33:31.304Z,11.16
2023-05-02T03:34:33.485Z,11.13
2023-05-02T03:35:35.643Z,11.13
2023-05-02T03:36:37.871Z,11.18
2023-05-02T03:37:40.010Z,11.20
2023-05-02T03:38:42.422Z,11.17
2023-05-02T03:39:44.941Z,11.18
2023-05-02T03:40:47.072Z,11.16
2023-05-02T03:41:49.202Z,11.19
2023-05-02T03:42:51.366Z,11.20
2023-05-02T03:43:53.482Z,11.20
2023-05-02T03:44:55.779Z,11.16
2023-05-02T03:45:57.918Z,11.16
2023-05-02T03:47:00.143Z,11.13
2023-05-02T03:48:02.412Z,11.11
2023-05-02T03:49:04.572Z,11.11
2023-05-02T03:50:07.529Z,11.07
2023-05-02T03:51:10.040Z,11.06
2023-05-02T03:52:12.380Z,11.06
2023-05-02T03:53:16.152Z,11.09
2023-05-02T03:54:18.330Z,11.07
2023-05-02T03:55:21.319Z,11.06
2023-05-02T03:56:23.423Z,11.11
2023-05-02T03:57:25.665Z,11.15
2023-05-02T03:58:28.396Z,11.21
2023-05-02T03:59:35.049Z,11.18
2023-05-02T04:00:38.334Z,11.20
2023-05-02T04:01:40.463Z,11.19
2023-05-02T04:02:42.712Z,11.17
2023-05-02T04:03:45.077Z,11.13
2023-05-02T04:04:47.675Z,11.12
2023-05-02T04:05:51.564Z,11.17
2023-05-02T04:06:53.806Z,11.20
2023-05-02T04:07:57.021Z,11.19
2023-05-02T04:08:59.728Z,11.23
2023-05-02T04:10:02.281Z,11.20
2023-05-02T04:11:04.711Z,11.18
2023-05-02T04:12:06.965Z,11.26
2023-05-02T04:13:09.087Z,11.23
2023-05-02T04:14:11.327Z,11.25
2023-05-02T04:15:13.498Z,11.25
2023-05-02T04:16:15.745Z,11.26
2023-05-02T04:17:18.115Z,11.26
2023-05-02T04:18:20.547Z,11.29
2023-05-02T04:19:22.640Z,11.32
2023-05-02T04:20:24.761Z,11.29
2023-05-02T04:21:27.707Z,11.29
2023-05-02T04:22:29.788Z,11.31
2023-05-02T04:23:33.016Z,11.34
2023-05-02T04:24:35.365Z,11.37
2023-05-02T04:25:37.441Z,11.38
2023-05-02T04:26:39.579Z,11.36
2023-05-02T04:27:41.657Z,11.44
2023-05-02T04:28:43.811Z,11.49
2023-05-02T04:29:49.863Z,11.49
2023-05-02T04:30:52.156Z,11.51
2023-05-02T04:31:54.376Z,11.53
2023-05-02T04:32:57.084Z,11.54
2023-05-02T04:33:59.269Z,11.51
2023-05-02T04:35:01.606Z,11.44
2023-05-02T04:36:03.922Z,11.48
2023-05-02T04:37:06.444Z,11.48
2023-05-02T04:38:08.881Z,11.51
2023-05-02T04:39:10.976Z,11.51
2023-05-02T04:40:13.589Z,11.56
2023-05-02T04:41:16.001Z,11.60
2023-05-02T04:42:18.152Z,11.57
2023-05-02T04:43:21.042Z,11.63
2023-05-02T04:44:23.962Z,11.61
2023-05-02T04:45:26.170Z,11.57
2023-05-02T04:46:28.386Z,11.60
2023-05-02T04:47:30.978Z,11.68
2023-05-02T04:48:33.734Z,11.66
2023-05-02T04:49:36.251Z,11.67
2023-05-02T04:50:38.368Z,11.64
2023-05-02T04:51:40.489Z,11.63
2023-05-02T04:52:42.597Z,11.68
2023-05-02T04:53:44.836Z,11.64
2023-05-02T04:54:46.939Z,11.70
2023-05-02T04:55:49.528Z,11.72
2023-05-02T04:56:51.588Z,11.77
2023-05-02T04:57:53.742Z,11.83
2023-05-02T04:58:56.026Z,11.87
2023-05-02T04:59:58.287Z,11.95
2023-05-02T05:01:01.972Z,12.01
2023-05-02T05:02:04.482Z,12.09
2023-05-02T05:03:06.932Z,12.06
2023-05-02T05:04:09.268Z,12.17
2023-05-02T05:05:11.604Z,12.26
2023-05-02T05:06:13.808Z,12.37
2023-05-02T05:07:16.253Z,12.42
2023-05-02T05:08:18.655Z,12.42
2023-05-02T05:09:20.806Z,12.41
2023-05-02T05:10:22.900Z,12.39
2023-05-02T05:11:26.499Z,12.42
2023-05-02T05:12:28.569Z,12.50
2023-05-02T05:13:30.776Z,12.53
2023-05-02T05:14:33.024Z,12.55
2023-05-02T05:15:35.203Z,12.57
2023-05-02T05:16:37.616Z,12.60
2023-05-02T05:17:39.882Z,12.68
2023-05-02T05:18:42.585Z,12.69
2023-05-02T05:19:44.684Z,12.72
2023-05-02T05:20:46.878Z,12.74
2023-05-02T05:21:49.037Z,12.74
2023-05-02T05:22:51.243Z,12.78
2023-05-02T05:23:53.372Z,12.86
2023-05-02T05:24:55.591Z,12.86
2023-05-02T05:25:57.970Z,12.97
2023-05-02T05:27:00.162Z,13.07
2023-05-02T05:28:02.310Z,13.11
2023-05-02T05:29:04.385Z,13.13
2023-05-02T05:30:07.504Z,13.22
2023-05-02T05:31:11.336Z,13.27
2023-05-02T05:32:13.491Z,13.33
2023-05-02T05:33:15.765Z,13.43
2023-05-02T05:34:18.181Z,13.50
2023-05-02T05:35:20.384Z,13.57
2023-05-02T05:36:23.658Z,13.65
2023-05-02T05:37:25.942Z,13.75
2023-05-02T05:38:28.111Z,13.78
2023-05-02T05:39:30.215Z,13.80
2023-05-02T05:40:32.291Z,13.88
2023-05-02T05:41:35.186Z,13.95
2023-05-02T05:42:37.267Z,13.95
2023-05-02T05:43:39.417Z,14.02
2023-05-02T05:44:41.555Z,14.11
2023-05-02T05:45:43.861Z,14.16
2023-05-02T05:46:46.147Z,14.23
2023-05-02T05:47:48.457Z,14.25
2023-05-02T05:48:50.653Z,14.33
2023-05-02T05:49:54.011Z,14.38
2023-05-02T05:50:56.125Z,14.42
2023-05-02T05:51:58.504Z,14.46
2023-05-02T05:53:00.783Z,14.51
2023-05-02T05:54:02.973Z,14.56
2023-05-02T05:55:05.922Z,14.58
2023-05-02T05:56:11.673Z,14.53
2023-05-02T05:57:13.869Z,14.58
2023-05-02T05:58:16.087Z,14.69
2023-05-02T05:59:18.173Z,14.69
2023-05-02T06:00:20.572Z,14.77
2023-05-02T06:01:22.674Z,14.88
2023-05-02T06:02:24.881Z,14.91
2023-05-02T06:03:27.211Z,15.00
2023-05-02T06:04:29.724Z,15.02
2023-05-02T06:05:31.914Z,15.13
2023-05-02T06:06:34.449Z,15.24
2023-05-02T06:07:36.621Z,15.31
2023-05-02T06:08:39.291Z,15.33
2023-05-02T06:09:41.539Z,15.42
2023-05-02T06:10:43.654Z,15.43
2023-05-02T06:11:45.774Z,15.50
2023-05-02T06:12:49.282Z,15.57
2023-05-02T06:13:52.235Z,15.60
2023-05-02T06:14:54.368Z,15.59
2023-05-02T06:16:01.138Z,15.68
2023-05-02T06:17:03.325Z,15.76
2023-05-02T06:18:05.473Z,15.82
2023-05-02T06:19:07.624Z,15.88
2023-05-02T06:20:10.090Z,15.94
2023-05-02T06:21:12.246Z,15.97
2023-05-02T06:22:14.441Z,16.04
2023-05-02T06:23:16.640Z,16.12
2023-05-02T06:24:18.749Z,16.09
2023-05-02T06:25:21.110Z,16.08
2023-05-02T06:26:23.290Z,16.16
2023-05-02T06:27:25.424Z,16.13
2023-05-02T06:28:28.152Z,16.18
2023-05-02T06:29:30.393Z,16.24
2023-05-02T06:30:32.612Z,16.21
2023-05-02T06:31:34.889Z,16.28
2023-05-02T06:32:37.112Z,16.28
2023-05-02T06:33:39.369Z,16.28
2023-05-02T06:34:41.637Z,16.30
2023-05-02T06:35:43.744Z,16.40
2023-05-02T06:36:45.836Z,16.49
2023-05-02T06:37:47.938Z,16.50
2023-05-02T06:38:50.008Z,16.51
2023-05-02T06:39:52.105Z,16.62
2023-05-02T06:40:54.228Z,16.60
2023-05-02T06:41:59.190Z,16.63
2023-05-02T06:43:01.342Z,16.54
2023-05-02T06:44:03.414Z,16.52
2023-05-02T06:45:05.877Z,16.61
2023-05-02T06:46:08.640Z,16.71
2023-05-02T06:47:10.943Z,16.91
2023-05-02T06:48:13.281Z,16.86
2023-05-02T06:49:15.608Z,16.99
2023-05-02T06:50:17.861Z,17.13
2023-05-02T06:51:21.262Z,17.22
2023-05-02T06:52:23.456Z,17.31
2023-05-02T06:53:25.618Z,17.41
2023-05-02T06:54:27.826Z,17.55
2023-05-02T06:55:30.033Z,17.69
2023-05-02T06:56:32.175Z,17.76
2023-05-02T06:57:34.369Z,17.89
2023-05-02T06:58:36.586Z,17.95
2023-05-02T06:59:38.725Z,17.96
2023-05-02T07:00:41.199Z,17.97
2023-05-02T07:01:46.421Z,18.02
2023-05-02T07:02:49.238Z,18.09
2023-05-02T07:03:52.364Z,18.21
2023-05-02T07:04:54.473Z,18.22
2023-05-02T07:05:56.795Z,18.18
2023-05-02T07:06:58.945Z,18.20
2023-05-02T07:08:01.034Z,18.19
2023-05-02T07:09:03.158Z,18.23
2023-05-02T07:10:05.775Z,18.22
2023-05-02T07:11:07.882Z,18.17
2023-05-02T07:12:09.982Z,18.22
2023-05-02T07:13:12.156Z,18.32
2023-05-02T07:14:14.323Z,18.49
2023-05-02T07:15:17.092Z,18.45
2023-05-02T07:16:19.259Z,18.54
2023-05-02T07:17:21.472Z,18.37
2023-05-02T07:18:23.579Z,18.50
2023-05-02T07:19:25.887Z,18.60
2023-05-02T07:20:28.007Z,18.67
2023-05-02T07:21:30.375Z,18.72
2023-05-02T07:22:32.470Z,18.72
2023-05-02T07:23:34.721Z,18.80
2023-05-02T07:24:40.760Z,19.01
2023-05-02T07:25:42.867Z,19.03
2023-05-02T07:26:45.243Z,18.87
2023-05-02T07:27:47.410Z,18.88
2023-05-02T07:28:49.521Z,18.92
2023-05-02T07:29:51.936Z,18.91
2023-05-02T07:30:54.185Z,19.03
2023-05-02T07:31:56.668Z,18.97
2023-05-02T07:32:58.898Z,18.98
2023-05-02T07:34:01.042Z,18.95
2023-05-02T07:35:03.226Z,19.10
2023-05-02T07:36:05.647Z,19.17
2023-05-02T07:37:07.775Z,19.24
2023-05-02T07:38:09.924Z,19.38
2023-05-02T07:39:12.037Z,19.23
2023-05-02T07:40:14.373Z,19.40
2023-05-02T07:41:16.718Z,19.51
2023-05-02T07:42:18.861Z,19.57
2023-05-02T07:43:20.960Z,19.60
2023-05-02T07:44:23.087Z,19.47
2023-05-02T07:45:25.263Z,19.59
2023-05-02T07:46:27.348Z,19.57
2023-05-02T07:47:29.626Z,19.27
2023-05-02T07:48:32.272Z,19.21
2023-05-02T07:49:34.359Z,19.08
2023-05-02T07:50:36.521Z,18.92
2023-05-02T07:51:39.971Z,18.71
2023-05-02T07:52:42.122Z,18.82
2023-05-02T07:53:44.492Z,18.84
2023-05-02T07:54:48.585Z,19.01
2023-05-02T07:55:50.856Z,19.10
2023-05-02T07:56:53.039Z,19.12
2023-05-02T07:57:55.220Z,19.27
2023-05-02T07:58:57.371Z,18.98
2023-05-02T08:00:00.098Z,19.12
2023-05-02T08:01:02.521Z,19.30
2023-05-02T08:02:05.140Z,19.25
2023-05-02T08:03:07.748Z,19.44
2023-05-02T08:04:11.651Z,19.55
2023-05-02T08:05:14.073Z,19.38
2023-05-02T08:06:16.286Z,19.41
2023-05-02T08:07:18.411Z,19.63
2023-05-02T08:08:20.597Z,19.74
2023-05-02T08:09:23.244Z,19.83
2023-05-02T08:10:25.720Z,19.97
2023-05-02T08:11:27.870Z,20.16
2023-05-02T08:12:29.992Z,19.56
2023-05-02T08:13:32.111Z,19.53
2023-05-02T08:14:34.363Z,19.48
2023-05-02T08:15:36.552Z,19.50
2023-05-02T08:16:38.985Z,19.84
2023-05-02T08:17:41.438Z,19.81
2023-05-02T08:18:43.630Z,19.84
2023-05-02T08:19:45.895Z,19.94
2023-05-02T08:20:48.428Z,19.99
2023-05-02T08:21:50.717Z,20.12
2023-05-02T08:22:52.924Z,19.98
2023-05-02T08:23:58.488Z,19.86
2023-05-02T08:25:00.872Z,20.01
2023-05-02T08:26:02.982Z,20.23
2023-05-02T08:27:05.110Z,20.49
2023-05-02T08:28:07.213Z,20.75
2023-05-02T08:29:11.701Z,20.88
2023-05-02T08:30:14.382Z,20.81
2023-05-02T08:31:16.503Z,20.92
2023-05-02T08:32:18.705Z,20.99
2023-05-02T08:33:21.136Z,20.97
2023-05-02T08:34:23.326Z,21.14
2023-05-02T08:35:25.474Z,21.08
2023-05-02T08:36:28.855Z,20.99
2023-05-02T08:37:32.155Z,21.17
2023-05-02T08:38:34.266Z,21.35
2023-05-02T08:39:36.353Z,21.42
2023-05-02T08:40:42.666Z,21.50
2023-05-02T08:41:45.516Z,21.55
2023-05-02T08:42:47.817Z,21.35
2023-05-02T08:43:49.970Z,21.47
2023-05-02T08:44:52.536Z,21.48
2023-05-02T08:45:55.839Z,21.38
2023-05-02T08:47:00.620Z,21.47
2023-05-02T08:48:07.353Z,21.54
2023-05-02T08:49:13.355Z,21.53
2023-05-02T08:50:16.480Z,21.48
2023-05-02T08:52:22.296Z,21.55
2023-05-02T08:53:24.772Z,21.43
2023-05-02T08:54:27.140Z,21.57
2023-05-02T08:55:29.258Z,21.49
2023-05-02T08:56:32.766Z,21.31
2023-05-02T08:57:34.943Z,21.66
2023-05-02T08:58:40.809Z,22.11
2023-05-02T08:59:43.283Z,22.25
2023-05-02T09:00:48.292Z,22.44
2023-05-02T09:01:53.099Z,22.75
2023-05-02T09:03:17.057Z,22.60
2023-05-02T09:04:24.864Z,22.32
2023-05-02T09:05:27.256Z,22.70
2023-05-02T09:06:29.480Z,22.97
2023-05-02T09:07:31.656Z,23.12
2023-05-02T09:08:34.664Z,23.34
2023-05-02T09:09:37.703Z,23.12
2023-05-02T09:10:42.358Z,23.29
2023-05-02T09:11:47.268Z,23.30
2023-05-02T09:12:49.591Z,23.16
2023-05-02T09:13:52.788Z,23.59
2023-05-02T09:15:17.712Z,23.76
2023-05-02T09:16:23.803Z,23.25
2023-05-02T09:17:26.054Z,23.35
2023-05-02T09:18:33.287Z,23.56
2023-05-02T09:19:35.436Z,23.72
2023-05-02T09:20:41.081Z,24.14
2023-05-02T09:21:43.429Z,23.59
2023-05-02T09:22:50.779Z,23.12
2023-05-02T09:23:58.106Z,22.88
2023-05-02T09:25:01.483Z,23.43
2023-05-02T09:26:20.299Z,23.98
2023-05-02T09:27:22.455Z,24.06
2023-05-02T09:28:46.757Z,24.23
2023-05-02T09:29:48.914Z,23.86
2023-05-02T09:30:51.206Z,24.32
2023-05-02T09:31:56.324Z,24.49
2023-05-02T09:32:59.196Z,24.71
2023-05-02T09:34:19.655Z,24.69
2023-05-02T09:35:24.923Z,24.59
2023-05-02T09:36:39.620Z,24.52
2023-05-02T09:37:42.052Z,24.89
2023-05-02T09:38:45.652Z,24.89
2023-05-02T09:40:05.847Z,23.68
2023-05-02T09:41:08.585Z,23.65
2023-05-02T09:42:10.871Z,24.01
2023-05-02T09:43:17.188Z,23.86
2023-05-02T09:44:21.366Z,24.43
2023-05-02T09:45:26.753Z,25.08
2023-05-02T09:46:40.452Z,25.31
2023-05-02T09:47:42.762Z,24.99
2023-05-02T09:48:56.268Z,25.67
2023-05-02T09:49:58.404Z,26.11
2023-05-02T09:51:01.491Z,25.95
2023-05-02T09:52:17.472Z,26.21
2023-05-02T09:53:19.594Z,26.36
2023-05-02T09:54:37.399Z,26.47
2023-05-02T09:55:39.899Z,26.77
2023-05-02T09:56:57.707Z,27.09
2023-05-02T09:58:00.167Z,27.42
2023-05-02T09:59:15.418Z,27.38
2023-05-02T10:00:19.629Z,27.57
2023-05-02T10:01:21.788Z,27.79
2023-05-02T10:02:24.982Z,28.04
2023-05-02T10:03:29.201Z,27.24
2023-05-02T10:04:33.418Z,26.46
2023-05-02T10:05:39.651Z,25.86
2023-05-02T10:06:44.054Z,25.81
2023-05-02T10:07:46.677Z,25.94
2023-05-02T10:08:49.472Z,26.21
2023-05-02T10:09:54.814Z,26.56
2023-05-02T10:10:58.956Z,25.46
2023-05-02T10:12:06.726Z,26.08
2023-05-02T10:13:09.186Z,25.80
2023-05-02T10:14:12.419Z,25.29
2023-05-02T10:15:15.840Z,24.91
2023-05-02T10:16:22.848Z,25.37
2023-05-02T10:17:42.325Z,25.33
2023-05-02T10:19:04.099Z,24.93
2023-05-02T10:20:07.887Z,25.53
2023-05-02T10:21:11.889Z,25.27
2023-05-02T10:22:14.090Z,25.41
2023-05-02T10:23:17.256Z,25.70
2023-05-02T10:24:20.050Z,25.62
2023-05-02T10:25:22.187Z,25.23
2023-05-02T10:26:24.915Z,25.28
2023-05-02T10:27:27.292Z,25.52
2023-05-02T10:28:30.607Z,25.57
2023-05-02T10:29:33.359Z,26.19
2023-05-02T10:30:35.612Z,26.88
2023-05-02T10:31:39.752Z,27.25
2023-05-02T10:32:42.615Z,27.32
2023-05-02T10:33:44.828Z,27.82
2023-05-02T10:34:47.806Z,27.24
2023-05-02T10:35:50.406Z,26.98
2023-05-02T10:36:52.572Z,26.92
2023-05-02T10:37:55.512Z,27.33
2023-05-02T10:38:57.713Z,27.36
2023-05-02T10:40:01.013Z,27.54
2023-05-02T10:41:07.719Z,28.27
2023-05-02T10:42:10.652Z,27.97
2023-05-02T10:43:16.304Z,27.56
2023-05-02T10:44:19.356Z,27.70
2023-05-02T10:45:32.024Z,27.55
2023-05-02T10:46:40.622Z,28.13
2023-05-02T10:47:43.637Z,27.32
2023-05-02T10:49:00.894Z,27.45
2023-05-02T10:50:04.863Z,27.75
2023-05-02T10:51:09.996Z,27.48
2023-05-02T10:52:34.567Z,26.64
2023-05-02T10:53:39.707Z,26.38
2023-05-02T10:54:41.860Z,26.00
2023-05-02T10:55:44.440Z,26.19
2023-05-02T10:57:06.758Z,26.24
2023-05-02T10:58:09.316Z,26.01
2023-05-02T10:59:31.680Z,26.71
2023-05-02T11:00:34.558Z,27.18
2023-05-02T11:01:38.202Z,27.27
2023-05-02T11:02:43.409Z,27.07
2023-05-02T11:04:01.109Z,27.14
2023-05-02T11:05:06.228Z,27.74
2023-05-02T11:06:08.451Z,28.03
2023-05-02T11:07:13.615Z,28.33
2023-05-02T11:08:15.753Z,28.52
2023-05-02T11:09:18.643Z,28.53
2023-05-02T11:10:20.753Z,28.28
2023-05-02T11:11:42.754Z,27.86
2023-05-02T11:12:50.976Z,27.58
2023-05-02T11:13:53.111Z,27.70
2023-05-02T11:14:55.363Z,27.36
2023-05-02T11:15:57.611Z,26.77
2023-05-02T11:16:59.856Z,26.81
2023-05-02T11:18:14.690Z,26.81
2023-05-02T11:19:16.921Z,26.90
2023-05-02T11:20:20.133Z,27.08
2023-05-02T11:21:29.597Z,26.83
2023-05-02T11:22:32.263Z,26.60
2023-05-02T11:23:36.975Z,26.63
2023-05-02T11:24:44.840Z,26.59
2023-05-02T11:26:22.135Z,27.24
2023-05-02T11:27:30.261Z,27.86
2023-05-02T11:28:39.210Z,28.22
2023-05-02T11:29:57.435Z,28.54
2023-05-02T11:30:59.572Z,29.08
2023-05-02T11:32:01.718Z,29.50
2023-05-02T11:33:06.712Z,29.31
2023-05-02T11:34:08.943Z,29.25
2023-05-02T11:35:21.839Z,29.53
2023-05-02T11:36:30.411Z,29.22
2023-05-02T11:37:33.259Z,29.12
2023-05-02T11:38:38.911Z,29.03
2023-05-02T11:39:41.608Z,28.71
2023-05-02T11:41:00.064Z,28.08
2023-05-02T11:42:02.353Z,27.94
2023-05-02T11:43:15.510Z,27.69
2023-05-02T11:44:17.826Z,27.45
2023-05-02T11:45:21.132Z,27.01
2023-05-02T11:46:23.604Z,26.95
2023-05-02T11:47:27.405Z,26.93
2023-05-02T11:48:30.764Z,26.87
2023-05-02T11:49:32.957Z,27.39
2023-05-02T11:50:51.663Z,27.27
2023-05-02T11:51:53.798Z,26.20
2023-05-02T11:52:56.087Z,26.27
2023-05-02T11:53:58.203Z,26.05
2023-05-02T11:55:00.728Z,25.77
2023-05-02T11:56:04.689Z,25.24
2023-05-02T11:57:07.658Z,24.85
2023-05-02T11:58:13.888Z,24.85
2023-05-02T11:59:16.018Z,25.01
2023-05-02T12:00:18.525Z,25.38
2023-05-02T12:01:20.704Z,25.63
2023-05-02T12:02:38.533Z,25.92
2023-05-02T12:03:41.487Z,26.03
2023-05-02T12:04:44.814Z,26.91
2023-05-02T12:05:47.019Z,27.61
2023-05-02T12:06:58.522Z,28.27
2023-05-02T12:08:02.637Z,28.47
2023-05-02T12:09:09.542Z,28.42
2023-05-02T12:10:13.289Z,27.94
2023-05-02T12:11:16.751Z,27.88
2023-05-02T12:12:22.497Z,27.74
2023-05-02T12:13:26.362Z,27.60
2023-05-02T12:14:29.857Z,27.48
2023-05-02T12:15:32.016Z,27.51
2023-05-02T12:16:34.835Z,27.41
2023-05-02T12:17:53.112Z,27.19
2023-05-02T12:18:58.076Z,26.98
2023-05-02T12:20:00.920Z,26.63
2023-05-02T12:21:03.109Z,25.97
2023-05-02T12:22:06.351Z,25.86
2023-05-02T12:23:08.704Z,26.13
2023-05-02T12:24:11.487Z,26.23
2023-05-02T12:25:13.816Z,26.09
2023-05-02T12:26:25.689Z,26.32
2023-05-02T12:27:33.253Z,26.87
2023-05-02T12:28:49.359Z,28.00
2023-05-02T12:29:51.788Z,28.74
2023-05-02T12:30:53.943Z,28.46
2023-05-02T12:31:57.524Z,28.02
2023-05-02T12:33:04.165Z,27.29
2023-05-02T12:34:06.345Z,27.21
2023-05-02T12:35:21.786Z,27.75
2023-05-02T12:36:24.040Z,27.74
2023-05-02T12:37:27.438Z,28.20
2023-05-02T12:38:29.525Z,29.09
2023-05-02T12:39:57.825Z,29.21
2023-05-02T12:41:00.317Z,29.11
2023-05-02T12:42:15.153Z,28.68
2023-05-02T12:43:17.504Z,28.12
2023-05-02T12:44:37.005Z,27.22
2023-05-02T12:45:39.294Z,28.02
2023-05-02T12:46:58.593Z,28.25
2023-05-02T12:48:26.444Z,27.53
2023-05-02T12:49:28.540Z,27.18
2023-05-02T12:50:39.452Z,26.69
2023-05-02T12:51:42.179Z,26.66
2023-05-02T12:52:59.244Z,25.96
2023-05-02T12:54:01.433Z,25.72
2023-05-02T12:55:36.061Z,26.32
2023-05-02T12:56:41.808Z,26.29
2023-05-02T12:57:44.314Z,25.61
2023-05-02T12:58:47.787Z,25.47
2023-05-02T12:59:54.498Z,25.43
2023-05-02T13:00:56.744Z,25.49
2023-05-02T13:01:59.859Z,25.54
2023-05-02T13:03:02.131Z,25.59
2023-05-02T13:04:05.720Z,25.49
2023-05-02T13:05:15.370Z,25.43
2023-05-02T13:06:18.010Z,25.19
2023-05-02T13:07:20.193Z,25.12
2023-05-02T13:08:22.376Z,24.84
2023-05-02T13:09:24.511Z,24.74
2023-05-02T13:10:27.899Z,24.62
2023-05-02T13:11:30.068Z,24.36
2023-05-02T13:12:32.462Z,24.22
2023-05-02T13:13:35.608Z,23.83
2023-05-02T13:14:37.912Z,23.90
2023-05-02T13:15:40.061Z,23.96
2023-05-02T13:16:42.262Z,24.06
2023-05-02T13:17:44.989Z,24.25
2023-05-02T13:18:48.079Z,24.21
2023-05-02T13:20:00.788Z,24.20
2023-05-02T13:21:05.046Z,24.14
2023-05-02T13:22:08.831Z,24.19
2023-05-02T13:23:11.078Z,24.05
2023-05-02T13:24:13.436Z,24.06
2023-05-02T13:25:15.616Z,24.01
2023-05-02T13:26:17.819Z,23.89
2023-05-02T13:27:20.098Z,23.81
2023-05-02T13:28:22.220Z,23.99
2023-05-02T13:29:24.447Z,24.02
2023-05-02T13:30:26.554Z,24.09
2023-05-02T13:31:28.790Z,24.07
2023-05-02T13:32:31.101Z,24.12
2023-05-02T13:33:33.389Z,24.18
2023-05-02T13:34:35.539Z,24.06
2023-05-02T13:35:37.788Z,24.17
2023-05-02T13:36:46.273Z,24.44
2023-05-02T13:37:48.656Z,24.53
2023-05-02T13:38:50.841Z,24.39
2023-05-02T13:39:52.921Z,24.28
2023-05-02T13:40:55.140Z,23.85
2023-05-02T13:41:57.242Z,23.76
2023-05-02T13:42:59.348Z,23.73
2023-05-02T13:44:01.426Z,23.65
2023-05-02T13:45:05.227Z,23.74
2023-05-02T13:46:07.469Z,23.66
2023-05-02T13:47:09.706Z,23.57
2023-05-02T13:48:12.289Z,23.47
2023-05-02T13:49:14.639Z,23.45
2023-05-02T13:50:16.917Z,23.42
2023-05-02T13:51:19.090Z,23.52
2023-05-02T13:52:21.230Z,23.37